Kindred, North Dakota
Current Conditions -  °F | °C
As of 9:38 PM on Sunday 21 Dec 2014 (Local Time) from KFAR Reporting Station
Haze Haze  
Wind Chill: 27°   Ceiling: 600
Heat Index: 36°   Visibility: 3mi
Dew Point: 33°   Wind: 14mph
Humidity: 89%   Direction: 150°SSE
Pressure: 29.56"   Gusts: NA
Location:  46.65°N, 97.02°W
Report Text: KFAR 220338Z 15012KT 3SM BR OVC006 02/01 A2956 RMK AO2 I1000 T00220006
Loading
Personal Weather Stations






























Interactive Weather Map New forecast layout! Learn more

10-Day Weather Forecast

Advertisements
Track Severe Weather on mobile